Time;durP1;ratioP1;P1;durP2;ratioP2;P2;SDS_P1;SDS_P2;PMS_P1;PMS_P2;Temp;Humidity;BMP_temperature;BMP_pressure;BME280_temperature;BME280_humidity;BME280_pressure;Samples;Min_cycle;Max_cycle;Signal;HPM_P1;HPM_P2
2021/09/21 00:01:13;;;;;;;6.53;4.85;;;12.70;91.60;;;;;;4955603;28;20031;-73
2021/09/21 00:03:40;;;;;;;6.47;5.22;;;12.70;91.60;;;;;;4955947;28;20485;-73
2021/09/21 00:06:07;;;;;;;6.00;4.82;;;12.70;91.50;;;;;;4955329;28;20039;-73
2021/09/21 00:08:37;;;;;;;7.40;5.28;;;12.70;91.30;;;;;;4955841;28;20039;-73
2021/09/21 00:11:05;;;;;;;7.65;4.95;;;12.70;91.40;;;;;;4955319;28;20035;-72
2021/09/21 00:13:32;;;;;;;7.22;5.53;;;12.60;91.50;;;;;;4955192;28;20051;-72
2021/09/21 00:15:58;;;;;;;6.45;5.15;;;12.60;91.80;;;;;;4937583;28;20035;-72
2021/09/21 00:18:25;;;;;;;6.25;5.20;;;12.60;91.90;;;;;;4955718;28;20043;-72
2021/09/21 00:20:51;;;;;;;6.25;4.45;;;12.60;91.70;;;;;;4937777;29;20051;-72
2021/09/21 00:23:17;;;;;;;6.63;4.68;;;12.50;91.80;;;;;;4954060;28;20075;-73
2021/09/21 00:25:44;;;;;;;6.25;4.55;;;12.50;91.80;;;;;;4955429;28;20038;-73
2021/09/21 00:28:10;;;;;;;6.47;5.10;;;12.50;91.80;;;;;;4953957;28;20545;-74
2021/09/21 00:30:44;;;;;;;7.05;5.05;;;12.50;91.60;;;;;;4955458;28;20477;-73
2021/09/21 00:33:17;;;;;;;7.03;5.40;;;12.50;91.50;;;;;;4954783;28;20066;-72
2021/09/21 00:35:44;;;;;;;6.72;5.07;;;12.50;91.70;;;;;;4954618;28;20043;-73
2021/09/21 00:38:13;;;;;;;6.57;4.50;;;12.50;91.40;;;;;;4954333;28;20113;-73
2021/09/21 00:40:41;;;;;;;7.18;4.55;;;12.40;91.00;;;;;;4940620;29;20035;-73
2021/09/21 00:43:07;;;;;;;6.85;4.70;;;12.40;91.20;;;;;;4954633;28;20035;-73
2021/09/21 00:45:34;;;;;;;7.20;4.95;;;12.40;91.10;;;;;;4954791;28;20035;-73
2021/09/21 00:48:01;;;;;;;6.03;4.57;;;12.40;91.30;;;;;;4937036;29;20046;-73
2021/09/21 00:50:28;;;;;;;6.45;4.78;;;12.40;91.30;;;;;;4957540;28;20425;-73
2021/09/21 00:52:56;;;;;;;7.45;5.35;;;12.40;91.70;;;;;;4954567;28;20047;-72
2021/09/21 00:55:23;;;;;;;5.60;4.10;;;12.40;91.50;;;;;;4954841;28;20055;-72
2021/09/21 00:57:49;;;;;;;6.38;5.43;;;12.40;91.20;;;;;;4954504;28;20042;-72
2021/09/21 01:00:18;;;;;;;7.57;5.63;;;12.40;91.10;;;;;;4954189;28;20038;-73
2021/09/21 01:02:44;;;;;;;7.30;5.47;;;12.40;90.70;;;;;;4954939;28;20031;-73
2021/09/21 01:05:11;;;;;;;6.10;5.15;;;12.40;90.70;;;;;;4953354;28;20219;-73
2021/09/21 01:07:43;;;;;;;5.43;4.18;;;12.40;90.50;;;;;;4953839;28;20039;-73
2021/09/21 01:10:13;;;;;;;6.40;4.47;;;12.40;90.10;;;;;;4954401;28;20043;-72
2021/09/21 01:12:40;;;;;;;6.43;4.85;;;12.30;90.00;;;;;;4954303;28;20042;-73
2021/09/21 01:15:08;;;;;;;8.13;5.25;;;12.30;90.00;;;;;;4954842;28;20031;-72
2021/09/21 01:17:35;;;;;;;7.57;4.90;;;12.30;89.80;;;;;;4954858;28;20036;-72
2021/09/21 01:20:01;;;;;;;7.13;5.22;;;12.40;89.50;;;;;;4954427;28;20027;-71
2021/09/21 01:22:27;;;;;;;5.70;4.45;;;12.40;89.00;;;;;;4954461;28;20488;-73
2021/09/21 01:24:54;;;;;;;7.20;4.78;;;12.40;89.10;;;;;;4952580;28;20043;-72
2021/09/21 01:27:20;;;;;;;6.60;4.80;;;12.40;89.50;;;;;;4954585;28;20488;-72
2021/09/21 01:29:46;;;;;;;7.18;5.75;;;12.40;90.00;;;;;;4954003;28;20038;-72
2021/09/21 01:32:13;;;;;;;7.60;5.43;;;12.40;90.20;;;;;;4953310;28;20039;-73
2021/09/21 01:34:39;;;;;;;6.88;5.15;;;12.40;90.10;;;;;;4952377;28;20047;-72
2021/09/21 01:37:06;;;;;;;7.53;4.72;;;12.40;89.70;;;;;;4936290;29;20067;-73
2021/09/21 01:39:33;;;;;;;7.88;5.85;;;12.30;88.90;;;;;;4953990;28;20042;-72
2021/09/21 01:42:00;;;;;;;6.25;5.25;;;12.30;89.50;;;;;;4953458;28;20038;-73
2021/09/21 01:44:26;;;;;;;5.72;4.88;;;12.30;89.80;;;;;;4954112;28;20036;-73
2021/09/21 01:46:55;;;;;;;7.18;5.25;;;12.40;89.40;;;;;;4953845;28;20027;-73
2021/09/21 01:49:22;;;;;;;6.80;4.88;;;12.40;89.00;;;;;;4954419;28;20039;-72
2021/09/21 01:52:07;;;;;;;6.68;5.22;;;12.30;88.90;;;;;;4971291;28;20473;-73
2021/09/21 01:59:56;;;;;;;6.82;5.20;;;12.30;88.90;;;;;;4967366;28;20026;-73
2021/09/21 02:02:22;;;;;;;6.88;4.88;;;12.30;88.30;;;;;;4958077;28;20034;-73
2021/09/21 02:04:49;;;;;;;6.63;5.47;;;12.30;88.60;;;;;;4956708;28;20043;-73
2021/09/21 02:07:15;;;;;;;8.00;5.18;;;12.30;88.40;;;;;;4956270;28;20058;-73
2021/09/21 02:09:41;;;;;;;6.70;5.38;;;12.30;87.90;;;;;;4957801;28;20035;-72
2021/09/21 02:12:07;;;;;;;8.70;5.35;;;12.30;88.40;;;;;;4957080;28;20036;-72
2021/09/21 02:14:33;;;;;;;7.97;4.80;;;12.30;88.30;;;;;;4957507;28;20039;-72
2021/09/21 02:17:00;;;;;;;6.80;5.15;;;12.30;88.50;;;;;;4957228;28;20082;-72
2021/09/21 02:19:26;;;;;;;6.78;5.28;;;12.20;88.90;;;;;;4958001;28;20038;-72
2021/09/21 02:21:52;;;;;;;7.07;5.13;;;12.20;89.70;;;;;;4957211;28;20043;-72
2021/09/21 02:24:22;;;;;;;7.68;4.88;;;12.20;89.90;;;;;;4957458;28;20039;-73
2021/09/21 02:26:49;;;;;;;6.57;5.03;;;12.10;90.50;;;;;;4957782;28;20038;-73
2021/09/21 02:29:15;;;;;;;6.78;5.57;;;12.10;90.70;;;;;;4957291;28;20039;-73
2021/09/21 02:31:41;;;;;;;6.63;5.47;;;12.10;90.90;;;;;;4957191;28;20046;-74
2021/09/21 02:34:08;;;;;;;7.30;5.72;;;12.10;91.20;;;;;;4939460;28;20485;-73
2021/09/21 02:36:34;;;;;;;8.75;6.15;;;12.00;91.30;;;;;;4957077;28;20047;-73
2021/09/21 02:39:00;;;;;;;7.55;6.03;;;12.10;91.30;;;;;;4956962;28;20051;-73
2021/09/21 02:41:26;;;;;;;7.43;5.75;;;12.10;91.60;;;;;;4957345;28;20035;-73
2021/09/21 02:43:53;;;;;;;9.60;6.35;;;12.10;91.60;;;;;;4957237;28;20038;-72
2021/09/21 02:46:19;;;;;;;8.15;5.90;;;12.10;91.40;;;;;;4957198;28;20058;-71
2021/09/21 02:48:46;;;;;;;7.25;5.80;;;12.10;91.20;;;;;;4956883;28;20035;-72
2021/09/21 02:51:12;;;;;;;8.43;6.53;;;12.10;90.90;;;;;;4957053;28;20027;-73
2021/09/21 02:53:38;;;;;;;7.82;5.90;;;12.10;90.80;;;;;;4957197;29;20453;-71
2021/09/21 02:56:04;;;;;;;7.35;6.28;;;12.10;90.70;;;;;;4958863;28;20461;-72
2021/09/21 02:58:31;;;;;;;7.60;5.60;;;12.10;90.80;;;;;;4963656;28;20031;-72
2021/09/21 03:00:58;;;;;;;7.70;5.97;;;12.10;90.60;;;;;;4960191;28;20034;-73
2021/09/21 03:03:30;;;;;;;9.00;6.32;;;12.10;90.40;;;;;;4957389;28;20042;-73
2021/09/21 03:06:00;;;;;;;10.32;5.75;;;12.10;90.30;;;;;;4964502;28;20480;-72
2021/09/21 03:08:30;;;;;;;8.07;5.70;;;12.10;90.30;;;;;;4957145;28;20046;-72
2021/09/21 03:11:16;;;;;;;7.55;5.75;;;12.10;90.20;;;;;;4966734;28;20034;-73
2021/09/21 03:18:56;;;;;;;7.82;5.93;;;12.10;90.10;;;;;;4956362;28;20035;-72
2021/09/21 03:21:23;;;;;;;10.35;5.80;;;12.00;90.00;;;;;;4956757;28;20039;-73
2021/09/21 03:23:49;;;;;;;7.97;6.07;;;12.00;90.10;;;;;;4956532;28;20046;-73
2021/09/21 03:26:16;;;;;;;6.28;5.47;;;12.00;90.10;;;;;;4955712;28;20039;-72
2021/09/21 03:28:43;;;;;;;7.72;5.72;;;12.00;90.00;;;;;;4956958;28;20031;-72
2021/09/21 03:31:09;;;;;;;9.05;6.93;;;12.00;90.20;;;;;;4955021;28;20053;-73
2021/09/21 03:33:35;;;;;;;7.63;6.28;;;12.00;90.00;;;;;;4955902;28;20043;-73
2021/09/21 03:36:02;;;;;;;8.63;5.78;;;12.00;90.10;;;;;;4938967;28;20039;-73
2021/09/21 03:38:28;;;;;;;7.75;6.05;;;12.00;90.00;;;;;;4956059;28;20039;-73
2021/09/21 03:40:54;;;;;;;7.15;5.88;;;12.00;90.20;;;;;;4955062;28;20051;-73
2021/09/21 03:43:20;;;;;;;7.47;5.75;;;12.00;90.00;;;;;;4956086;28;20035;-73
2021/09/21 03:45:46;;;;;;;7.85;5.85;;;12.00;89.80;;;;;;4955853;28;20038;-73
2021/09/21 03:48:13;;;;;;;8.70;6.05;;;11.90;90.30;;;;;;4955447;28;20031;-73
2021/09/21 03:50:39;;;;;;;8.80;7.05;;;11.90;90.00;;;;;;4956390;28;20042;-73
2021/09/21 03:53:05;;;;;;;8.88;6.35;;;11.90;90.10;;;;;;4955902;28;20039;-73
2021/09/21 03:55:31;;;;;;;9.02;6.50;;;11.90;90.00;;;;;;4958825;28;20437;-73
2021/09/21 03:57:58;;;;;;;7.90;5.80;;;11.90;89.80;;;;;;4955920;28;20050;-73
2021/09/21 04:00:24;;;;;;;8.60;6.10;;;11.90;89.70;;;;;;4955536;28;20397;-73
2021/09/21 04:02:50;;;;;;;7.75;6.13;;;11.90;89.20;;;;;;4956281;28;20042;-72
2021/09/21 04:05:17;;;;;;;8.30;5.88;;;11.90;89.20;;;;;;4955409;28;20035;-72
2021/09/21 04:07:43;;;;;;;8.05;6.15;;;11.90;89.10;;;;;;4955657;28;20409;-72
2021/09/21 04:10:10;;;;;;;8.35;5.78;;;11.90;89.20;;;;;;4953999;28;20050;-73
2021/09/21 04:12:36;;;;;;;8.25;5.82;;;11.90;89.30;;;;;;4955905;28;20028;-74
2021/09/21 04:15:04;;;;;;;8.13;5.88;;;11.90;89.00;;;;;;4952976;28;20062;-75
2021/09/21 04:17:30;;;;;;;9.38;5.80;;;11.90;89.20;;;;;;4955673;28;20129;-75
2021/09/21 04:19:57;;;;;;;7.10;5.38;;;11.90;89.20;;;;;;4970310;28;20046;-74
2021/09/21 04:22:23;;;;;;;7.20;5.63;;;11.90;88.90;;;;;;4938004;28;20036;-74
2021/09/21 04:24:50;;;;;;;7.57;5.55;;;11.90;89.10;;;;;;4955077;28;20039;-74
2021/09/21 04:27:16;;;;;;;7.63;5.82;;;11.90;89.20;;;;;;4952989;28;20049;-74
2021/09/21 04:29:42;;;;;;;7.78;6.28;;;11.90;89.40;;;;;;4954167;28;20047;-75
2021/09/21 04:32:09;;;;;;;8.13;5.20;;;11.90;89.50;;;;;;4963028;28;20042;-73
2021/09/21 04:34:36;;;;;;;7.13;4.97;;;11.90;89.20;;;;;;4955104;28;20043;-74
2021/09/21 04:37:03;;;;;;;8.27;6.35;;;11.80;89.20;;;;;;4937872;29;20058;-74
2021/09/21 04:39:29;;;;;;;7.60;5.93;;;11.80;89.50;;;;;;4954917;28;20039;-75
2021/09/21 04:41:55;;;;;;;7.95;6.05;;;11.90;90.00;;;;;;4955307;28;20042;-74
2021/09/21 04:44:22;;;;;;;10.10;6.13;;;11.80;90.00;;;;;;4954426;28;20043;-74
2021/09/21 04:46:48;;;;;;;9.27;5.97;;;11.90;89.80;;;;;;4938148;29;20080;-75
2021/09/21 04:49:15;;;;;;;7.68;6.13;;;11.80;89.90;;;;;;4953495;28;20039;-74
2021/09/21 04:51:42;;;;;;;9.10;6.45;;;11.80;90.10;;;;;;4953093;28;20043;-74
2021/09/21 04:54:08;;;;;;;7.40;5.28;;;11.80;90.10;;;;;;4961069;28;20062;-74
2021/09/21 04:56:34;;;;;;;8.68;5.97;;;11.80;90.10;;;;;;4955559;29;20035;-74
2021/09/21 04:59:01;;;;;;;6.60;4.78;;;11.80;90.20;;;;;;4954880;28;20036;-74
2021/09/21 05:01:28;;;;;;;9.77;6.15;;;11.80;90.00;;;;;;4953313;28;20050;-74
2021/09/21 05:03:54;;;;;;;7.95;6.03;;;11.80;90.30;;;;;;4962575;28;20037;-72
2021/09/21 05:06:20;;;;;;;8.95;6.18;;;11.80;90.50;;;;;;4955044;28;20034;-74
2021/09/21 05:08:46;;;;;;;7.45;5.60;;;11.80;90.60;;;;;;4955418;28;20028;-73
2021/09/21 05:11:13;;;;;;;7.55;5.35;;;11.80;90.50;;;;;;4953658;28;20039;-74
2021/09/21 05:13:39;;;;;;;7.40;5.63;;;11.70;90.60;;;;;;4955047;28;20495;-73
2021/09/21 05:16:05;;;;;;;7.18;5.50;;;11.70;90.80;;;;;;4954866;28;20055;-74
2021/09/21 05:18:32;;;;;;;6.65;5.18;;;11.60;90.70;;;;;;4955065;28;20035;-75
2021/09/21 05:20:58;;;;;;;8.32;5.50;;;11.60;91.00;;;;;;4954579;28;20043;-74
2021/09/21 05:23:24;;;;;;;6.97;5.72;;;11.60;91.00;;;;;;4955145;28;20039;-76
2021/09/21 05:25:51;;;;;;;9.02;6.28;;;11.70;91.30;;;;;;4955436;28;20038;-75
2021/09/21 05:28:17;;;;;;;8.20;6.03;;;11.70;91.40;;;;;;4954483;28;20042;-74
2021/09/21 05:30:44;;;;;;;6.25;5.10;;;11.70;91.60;;;;;;4962823;28;20035;-75
2021/09/21 05:33:10;;;;;;;7.05;5.43;;;11.70;91.40;;;;;;4953423;28;20043;-75
2021/09/21 05:35:36;;;;;;;5.93;4.45;;;11.60;91.30;;;;;;4954144;28;20035;-73
2021/09/21 05:38:03;;;;;;;7.80;6.22;;;11.70;91.40;;;;;;4953822;28;20032;-74
2021/09/21 05:40:29;;;;;;;6.88;5.53;;;11.60;91.30;;;;;;4953650;28;20043;-76
2021/09/21 05:45:51;;;;;;;7.88;5.68;;;11.70;91.30;;;;;;5089993;27;20454;-75
2021/09/21 05:48:17;;;;;;;6.88;5.35;;;11.70;91.40;;;;;;5089649;28;20589;-73
2021/09/21 05:50:43;;;;;;;11.38;5.10;;;11.70;91.50;;;;;;5067760;28;20067;-74
2021/09/21 05:53:10;;;;;;;6.72;5.68;;;11.70;91.50;;;;;;5069793;28;20389;-74
2021/09/21 05:55:36;;;;;;;6.57;4.53;;;11.70;91.70;;;;;;5071610;28;20047;-76
2021/09/21 05:58:03;;;;;;;7.65;5.70;;;11.70;91.50;;;;;;5057998;28;20056;-75
2021/09/21 06:00:29;;;;;;;7.50;5.65;;;11.70;91.70;;;;;;5088540;28;20048;-75
2021/09/21 06:02:56;;;;;;;10.10;5.95;;;11.70;91.60;;;;;;5067123;28;20040;-74
2021/09/21 06:05:22;;;;;;;7.90;5.32;;;11.80;91.80;;;;;;5070077;28;20048;-74
2021/09/21 06:07:50;;;;;;;7.45;5.72;;;11.70;91.70;;;;;;5071213;28;20386;-74
2021/09/21 06:10:20;;;;;;;5.10;4.28;;;11.70;91.70;;;;;;5069868;28;20576;-74
2021/09/21 06:12:46;;;;;;;8.32;5.28;;;11.70;91.60;;;;;;5070169;28;20039;-75
2021/09/21 06:15:14;;;;;;;6.72;5.47;;;11.80;91.10;;;;;;5070007;28;20107;-75
2021/09/21 06:17:42;;;;;;;8.18;5.57;;;11.80;91.10;;;;;;5062149;28;20035;-76
2021/09/21 06:20:13;;;;;;;8.02;4.97;;;11.80;91.20;;;;;;5084511;28;20029;-76
2021/09/21 06:22:42;;;;;;;7.75;5.78;;;11.80;91.20;;;;;;5070464;28;20032;-75
2021/09/21 06:25:09;;;;;;;6.07;5.03;;;11.80;91.20;;;;;;5069726;28;20033;-76
2021/09/21 06:27:36;;;;;;;7.80;5.15;;;11.80;91.00;;;;;;5082112;28;20040;-77
2021/09/21 06:30:07;;;;;;;6.60;4.53;;;11.80;91.00;;;;;;5069906;28;20040;-76
2021/09/21 06:32:35;;;;;;;6.65;5.50;;;11.90;90.80;;;;;;5068195;28;20048;-76
2021/09/21 06:35:02;;;;;;;7.95;4.50;;;12.00;90.90;;;;;;5070344;28;20036;-76
2021/09/21 06:37:28;;;;;;;6.85;5.10;;;12.00;90.60;;;;;;5069915;28;20036;-77
2021/09/21 06:39:54;;;;;;;6.57;4.90;;;12.10;90.70;;;;;;5051838;28;20029;-77
2021/09/21 06:42:20;;;;;;;5.32;4.28;;;12.20;90.70;;;;;;5070164;28;20446;-77
2021/09/21 06:44:47;;;;;;;6.95;5.13;;;12.20;90.10;;;;;;5069986;28;20513;-77
2021/09/21 06:47:13;;;;;;;4.82;3.90;;;12.30;89.60;;;;;;5052443;28;20040;-76
2021/09/21 06:49:40;;;;;;;8.75;4.22;;;12.30;88.70;;;;;;5068570;28;20041;-77
2021/09/21 06:52:06;;;;;;;5.60;4.15;;;12.40;88.30;;;;;;5069683;28;20025;-76
2021/09/21 06:54:32;;;;;;;6.85;4.25;;;12.40;88.30;;;;;;5070467;28;20044;-77
2021/09/21 06:56:59;;;;;;;5.47;3.70;;;12.40;87.40;;;;;;5059969;28;20037;-77
2021/09/21 06:59:25;;;;;;;5.40;4.05;;;12.50;87.10;;;;;;5058409;28;20041;-79
2021/09/21 07:01:51;;;;;;;6.32;4.63;;;12.50;86.80;;;;;;5057000;28;20029;-77
2021/09/21 07:04:19;;;;;;;4.85;3.50;;;12.60;86.10;;;;;;5058691;28;20391;-78
2021/09/21 07:06:46;;;;;;;5.38;3.72;;;12.50;85.90;;;;;;5026298;28;20044;-78
2021/09/21 07:09:12;;;;;;;4.50;3.65;;;12.60;85.60;;;;;;5060487;28;20363;-77
2021/09/21 07:11:38;;;;;;;5.13;3.97;;;12.60;84.90;;;;;;5060204;28;20063;-78
2021/09/21 07:14:04;;;;;;;4.70;3.60;;;12.50;84.30;;;;;;5058782;28;20052;-77
2021/09/21 07:16:31;;;;;;;4.80;3.70;;;12.60;84.70;;;;;;5060620;28;20033;-76
2021/09/21 07:18:58;;;;;;;6.38;3.97;;;12.70;83.30;;;;;;5059476;28;20037;-74
2021/09/21 07:21:24;;;;;;;5.63;3.70;;;12.60;84.00;;;;;;5062551;28;20367;-78
2021/09/21 07:23:50;;;;;;;4.70;3.75;;;12.70;83.60;;;;;;5059247;28;20048;-75
2021/09/21 07:26:17;;;;;;;4.13;3.13;;;12.60;82.90;;;;;;5058486;28;20037;-75
2021/09/21 07:28:43;;;;;;;4.82;3.58;;;12.70;82.50;;;;;;5056676;28;20406;-75
2021/09/21 07:31:10;;;;;;;5.03;3.63;;;12.70;83.20;;;;;;5054903;28;20032;-76
2021/09/21 07:33:36;;;;;;;5.55;3.97;;;12.90;82.30;;;;;;5053269;28;20398;-76
2021/09/21 07:36:02;;;;;;;5.05;3.05;;;13.00;81.60;;;;;;5057315;28;20044;-76
2021/09/21 07:38:28;;;;;;;4.95;3.58;;;13.10;81.60;;;;;;5056528;28;20044;-77
2021/09/21 07:40:55;;;;;;;4.97;2.97;;;13.20;80.60;;;;;;5055084;28;20485;-78
2021/09/21 07:43:21;;;;;;;5.20;3.28;;;13.40;80.10;;;;;;5054220;28;20036;-76
2021/09/21 07:45:47;;;;;;;5.55;2.70;;;13.40;79.50;;;;;;5053809;28;20041;-77
2021/09/21 07:48:18;;;;;;;4.13;3.03;;;13.40;79.80;;;;;;5053948;28;20059;-77
2021/09/21 07:50:44;;;;;;;4.35;2.70;;;13.30;80.00;;;;;;5054694;28;20044;-77
2021/09/21 07:53:10;;;;;;;6.13;2.72;;;13.40;79.20;;;;;;5053687;28;20025;-77
2021/09/21 07:55:37;;;;;;;4.63;3.13;;;13.50;79.40;;;;;;5053960;28;20056;-77
2021/09/21 07:58:03;;;;;;;5.07;3.15;;;13.50;78.90;;;;;;5054048;28;20025;-76
2021/09/21 08:00:30;;;;;;;4.35;3.13;;;13.80;77.30;;;;;;5054130;28;20032;-76
2021/09/21 08:02:57;;;;;;;5.00;3.72;;;14.00;76.30;;;;;;5053970;28;20419;-76
2021/09/21 08:05:23;;;;;;;5.25;3.20;;;14.10;76.20;;;;;;5054042;28;20032;-77
2021/09/21 08:07:50;;;;;;;3.50;3.00;;;14.10;76.10;;;;;;5039501;28;20036;-77
2021/09/21 08:10:16;;;;;;;5.65;3.63;;;14.20;76.20;;;;;;5053438;28;20033;-76
2021/09/21 08:12:45;;;;;;;5.68;2.92;;;14.10;75.20;;;;;;5053877;28;20029;-77
2021/09/21 08:15:12;;;;;;;3.75;2.67;;;14.30;75.70;;;;;;5035493;28;20047;-77
2021/09/21 08:17:38;;;;;;;3.38;2.40;;;14.50;74.50;;;;;;5053135;28;20032;-76
2021/09/21 08:20:06;;;;;;;4.72;3.67;;;14.40;74.40;;;;;;5052953;28;20029;-76
2021/09/21 08:22:32;;;;;;;4.40;2.90;;;14.30;74.20;;;;;;5053060;28;20033;-76
2021/09/21 08:25:00;;;;;;;4.82;3.00;;;14.20;74.20;;;;;;5052650;28;20037;-76
2021/09/21 08:27:27;;;;;;;5.30;3.05;;;14.20;75.00;;;;;;5053608;28;20390;-76
2021/09/21 08:29:53;;;;;;;3.67;2.58;;;14.30;74.00;;;;;;5052805;28;20029;-77
2021/09/21 08:32:19;;;;;;;5.00;3.13;;;14.20;73.40;;;;;;5052720;28;20037;-75
2021/09/21 08:34:45;;;;;;;3.65;2.67;;;14.70;75.40;;;;;;5053090;28;20032;-77
2021/09/21 08:37:12;;;;;;;3.50;2.83;;;16.00;73.00;;;;;;5052937;28;20434;-77
2021/09/21 08:39:38;;;;;;;3.38;2.35;;;16.40;70.90;;;;;;5059134;28;20029;-77
2021/09/21 08:42:04;;;;;;;3.55;2.42;;;16.60;70.40;;;;;;5063138;28;20032;-77
2021/09/21 08:44:30;;;;;;;3.40;2.22;;;16.70;70.10;;;;;;5061642;28;20060;-76
2021/09/21 08:46:57;;;;;;;3.15;2.85;;;18.00;66.10;;;;;;5060196;28;20044;-77
2021/09/21 08:49:23;;;;;;;3.67;2.88;;;17.90;64.80;;;;;;5053941;28;20025;-76
2021/09/21 08:51:49;;;;;;;3.10;2.38;;;17.40;65.50;;;;;;5051003;28;20037;-76
2021/09/21 08:54:16;;;;;;;4.35;2.63;;;17.50;65.80;;;;;;5052482;28;20028;-76
2021/09/21 08:56:43;;;;;;;4.07;2.83;;;18.20;65.50;;;;;;5052747;28;20025;-76
2021/09/21 08:59:11;;;;;;;2.65;2.22;;;18.80;59.60;;;;;;5052697;28;20041;-77
2021/09/21 09:01:42;;;;;;;5.05;2.50;;;18.30;59.10;;;;;;5052176;28;20025;-77
2021/09/21 09:04:11;;;;;;;2.83;2.45;;;17.40;61.30;;;;;;5051939;28;20055;-77
2021/09/21 09:06:57;;;;;;;3.28;2.88;;;17.10;59.90;;;;;;5050864;28;20386;-78
2021/09/21 09:09:27;;;;;;;3.78;2.47;;;17.00;59.50;;;;;;5052711;28;20352;-77
2021/09/21 09:11:57;;;;;;;3.38;2.15;;;18.10;60.50;;;;;;5052162;28;20045;-77
2021/09/21 09:14:36;;;;;;;3.22;2.92;;;19.40;56.10;;;;;;5046645;28;20132;-76
2021/09/21 09:17:10;;;;;;;3.30;2.67;;;18.80;56.20;;;;;;5052140;28;20029;-76
2021/09/21 09:19:42;;;;;;;3.70;2.90;;;18.20;58.30;;;;;;5052142;28;20036;-76
2021/09/21 09:22:12;;;;;;;4.25;2.75;;;17.50;57.10;;;;;;5052275;28;20029;-77
2021/09/21 09:24:56;;;;;;;3.73;2.80;;;16.90;58.60;;;;;;5052402;28;20041;-78
2021/09/21 09:27:39;;;;;;;6.35;3.30;;;16.40;58.60;;;;;;5052021;28;20033;-78
2021/09/21 09:30:12;;;;;;;4.03;2.80;;;16.00;57.80;;;;;;5042931;28;20052;-76
2021/09/21 09:32:50;;;;;;;3.85;2.95;;;17.10;56.10;;;;;;5052444;28;20033;-78
2021/09/21 09:35:28;;;;;;;3.80;2.78;;;16.80;54.90;;;;;;5051969;28;20029;-78
2021/09/21 09:37:58;;;;;;;3.85;2.83;;;16.60;56.00;;;;;;5052516;28;20418;-78
2021/09/21 09:40:26;;;;;;;4.78;3.28;;;17.40;54.60;;;;;;5052151;28;20041;-78
2021/09/21 09:42:52;;;;;;;4.15;3.45;;;17.90;52.70;;;;;;5051955;28;20025;-78
2021/09/21 09:45:30;;;;;;;6.53;3.13;;;18.30;52.20;;;;;;5052371;28;20060;-76
2021/09/21 09:47:57;;;;;;;3.65;2.67;;;18.30;52.20;;;;;;5052273;28;20049;-76
2021/09/21 09:50:33;;;;;;;4.40;3.03;;;18.60;52.90;;;;;;5051504;28;20045;-76
2021/09/21 09:53:03;;;;;;;4.25;3.17;;;18.60;50.90;;;;;;5047406;28;20040;-77
2021/09/21 09:55:32;;;;;;;3.50;2.97;;;17.40;53.00;;;;;;5034102;28;20413;-79
2021/09/21 09:58:00;;;;;;;4.40;3.10;;;17.20;53.50;;;;;;5052554;28;20055;-77
2021/09/21 10:00:28;;;;;;;3.63;2.83;;;16.80;52.80;;;;;;5051964;28;20033;-77
2021/09/21 10:02:54;;;;;;;4.25;3.58;;;16.80;53.40;;;;;;5052946;28;20052;-79
2021/09/21 10:05:20;;;;;;;3.88;2.92;;;17.00;53.60;;;;;;5053487;28;20238;-77
2021/09/21 10:07:47;;;;;;;5.18;3.00;;;17.10;53.50;;;;;;5050349;28;20478;-77
2021/09/21 10:10:14;;;;;;;4.13;2.92;;;17.20;53.90;;;;;;5051881;28;20052;-78
2021/09/21 10:12:41;;;;;;;6.38;3.45;;;17.20;54.00;;;;;;5051991;28;20036;-78
2021/09/21 10:15:09;;;;;;;5.53;3.25;;;17.10;53.50;;;;;;5052226;28;20041;-77
2021/09/21 10:17:36;;;;;;;3.97;2.90;;;17.10;54.50;;;;;;5051949;28;20405;-76
2021/09/21 10:20:12;;;;;;;4.72;3.30;;;17.00;54.40;;;;;;5051758;28;20029;-77
2021/09/21 10:22:39;;;;;;;3.88;2.75;;;17.30;54.90;;;;;;5060243;28;20375;-77
2021/09/21 10:25:08;;;;;;;5.22;2.90;;;17.30;54.20;;;;;;5051183;28;20044;-78
2021/09/21 10:27:39;;;;;;;3.50;3.08;;;17.00;54.70;;;;;;5051827;28;20033;-77
2021/09/21 10:30:07;;;;;;;3.63;2.88;;;16.90;54.60;;;;;;5051398;28;20036;-77
2021/09/21 10:32:48;;;;;;;3.92;2.78;;;16.90;54.90;;;;;;5053693;28;20470;-79
2021/09/21 10:35:17;;;;;;;3.53;2.70;;;17.00;54.70;;;;;;5019291;28;20505;-76
2021/09/21 10:37:44;;;;;;;4.75;3.08;;;17.30;53.60;;;;;;5055756;28;20037;-77
2021/09/21 10:40:11;;;;;;;3.60;2.72;;;17.40;52.80;;;;;;5055854;28;20100;-78
2021/09/21 10:42:50;;;;;;;4.80;3.60;;;16.70;53.90;;;;;;5057000;28;20032;-77
2021/09/21 10:45:24;;;;;;;4.78;3.78;;;17.00;54.30;;;;;;5059928;28;20079;-78
2021/09/21 10:48:04;;;;;;;3.72;2.50;;;16.90;53.10;;;;;;5056745;28;20040;-78
2021/09/21 10:50:38;;;;;;;4.60;2.88;;;16.70;53.70;;;;;;5057622;28;20378;-78
2021/09/21 10:53:08;;;;;;;3.38;2.70;;;17.00;54.20;;;;;;5055546;28;20041;-78
2021/09/21 10:55:39;;;;;;;4.50;2.70;;;17.00;53.60;;;;;;5037703;28;20048;-78
2021/09/21 10:58:17;;;;;;;3.92;2.72;;;17.20;53.90;;;;;;5055060;28;20044;-77
2021/09/21 11:00:43;;;;;;;3.53;2.38;;;17.20;53.30;;;;;;5055614;28;20033;-77
2021/09/21 11:03:13;;;;;;;4.88;2.80;;;17.10;53.20;;;;;;5054698;28;20036;-78
2021/09/21 11:05:41;;;;;;;3.17;2.70;;;17.10;52.40;;;;;;5055043;28;20514;-77
2021/09/21 11:08:11;;;;;;;4.47;2.97;;;17.00;54.20;;;;;;5054909;28;20029;-78
2021/09/21 11:10:41;;;;;;;4.35;2.90;;;17.10;53.70;;;;;;5054371;28;20037;-77
2021/09/21 11:13:13;;;;;;;3.43;2.80;;;17.20;53.30;;;;;;5054772;28;20056;-79
2021/09/21 11:15:41;;;;;;;3.63;2.70;;;17.20;53.70;;;;;;5055170;28;20296;-78
2021/09/21 11:18:14;;;;;;;4.95;3.33;;;17.20;53.50;;;;;;5055622;28;20052;-78
2021/09/21 11:21:07;;;;;;;3.67;2.50;;;17.30;52.50;;;;;;5055096;28;20481;-77
2021/09/21 11:23:36;;;;;;;4.47;2.70;;;17.50;53.10;;;;;;5044796;28;20048;-78
2021/09/21 11:26:09;;;;;;;4.18;2.47;;;17.50;52.50;;;;;;5069395;28;20037;-77
2021/09/21 11:28:41;;;;;;;3.58;2.63;;;17.40;52.40;;;;;;5055474;28;20029;-78
2021/09/21 11:31:07;;;;;;;6.22;3.13;;;17.50;53.00;;;;;;5055160;28;20509;-77
2021/09/21 11:33:36;;;;;;;5.03;2.60;;;17.30;52.50;;;;;;5055086;28;20052;-77
2021/09/21 11:36:07;;;;;;;3.75;2.80;;;17.00;53.20;;;;;;5054813;28;20033;-78
2021/09/21 11:38:39;;;;;;;4.28;3.00;;;17.20;53.30;;;;;;5055325;28;20033;-76
2021/09/21 11:41:07;;;;;;;4.72;3.13;;;17.30;52.60;;;;;;5054814;28;20041;-77
2021/09/21 11:43:34;;;;;;;3.35;2.72;;;17.20;52.80;;;;;;5057678;28;20033;-77
2021/09/21 11:46:00;;;;;;;4.85;2.78;;;17.30;54.00;;;;;;5058189;28;20045;-79
2021/09/21 11:48:27;;;;;;;3.40;2.38;;;17.70;52.20;;;;;;5055205;28;20144;-79
2021/09/21 11:50:54;;;;;;;3.85;2.97;;;18.10;51.90;;;;;;5057523;28;20044;-77
2021/09/21 11:53:23;;;;;;;3.33;2.35;;;17.90;51.60;;;;;;5055571;28;20029;-77
2021/09/21 11:55:56;;;;;;;4.03;2.95;;;17.40;52.20;;;;;;5054379;28;20044;-78
2021/09/21 11:58:33;;;;;;;3.95;2.72;;;17.30;52.70;;;;;;5053979;28;20036;-79
2021/09/21 12:01:01;;;;;;;3.40;2.90;;;17.70;52.00;;;;;;5061700;28;20029;-78
2021/09/21 12:03:28;;;;;;;3.10;2.40;;;17.80;51.60;;;;;;5054774;28;20486;-80
2021/09/21 12:05:56;;;;;;;3.35;2.88;;;18.10;51.50;;;;;;5054334;28;20048;-78
2021/09/21 12:08:29;;;;;;;3.17;2.50;;;17.80;52.40;;;;;;5053755;28;20025;-79
2021/09/21 12:11:32;;;;;;;3.63;2.70;;;18.10;51.50;;;;;;5054379;28;20056;-78
2021/09/21 12:13:59;;;;;;;2.88;2.28;;;18.10;51.60;;;;;;5051655;28;20426;-77
2021/09/21 12:16:28;;;;;;;3.00;2.25;;;17.90;51.80;;;;;;5053778;28;20033;-79
2021/09/21 12:18:58;;;;;;;3.22;2.22;;;18.00;51.80;;;;;;5036044;28;20037;-77
2021/09/21 12:21:28;;;;;;;4.75;2.25;;;18.20;51.70;;;;;;5036224;28;20028;-75
2021/09/21 12:23:54;;;;;;;2.92;2.05;;;17.80;52.20;;;;;;5053998;28;20028;-77
2021/09/21 12:26:21;;;;;;;4.65;2.00;;;18.00;52.40;;;;;;5052850;28;20398;-77
2021/09/21 12:28:50;;;;;;;2.95;2.13;;;17.90;51.40;;;;;;5053638;28;20025;-76
2021/09/21 12:31:19;;;;;;;2.30;1.85;;;17.80;51.90;;;;;;5053419;28;20493;-78
2021/09/21 12:33:47;;;;;;;2.85;2.08;;;17.90;51.70;;;;;;5054001;28;20066;-78
2021/09/21 12:36:42;;;;;;;3.08;2.17;;;18.00;52.00;;;;;;5052797;28;20382;-77
2021/09/21 12:39:14;;;;;;;3.45;2.38;;;18.10;51.50;;;;;;5052976;28;20032;-76
2021/09/21 12:41:46;;;;;;;3.53;2.58;;;18.20;51.40;;;;;;5053068;28;20041;-78
2021/09/21 12:44:14;;;;;;;2.72;2.08;;;18.10;51.00;;;;;;5052283;28;20041;-79
2021/09/21 12:46:44;;;;;;;2.72;1.92;;;17.90;51.00;;;;;;5052990;28;20037;-79
2021/09/21 12:49:14;;;;;;;4.10;2.25;;;18.00;51.30;;;;;;5053338;28;20032;-78
2021/09/21 12:52:01;;;;;;;3.20;2.20;;;18.00;51.70;;;;;;5071797;28;20032;-78
2021/09/21 12:54:27;;;;;;;3.78;2.45;;;18.10;51.20;;;;;;5053187;28;20047;-76
2021/09/21 12:57:00;;;;;;;3.42;2.00;;;18.20;50.70;;;;;;5062082;28;20045;-79
2021/09/21 12:59:29;;;;;;;2.90;2.20;;;18.00;51.00;;;;;;5057158;28;20468;-78
2021/09/21 13:01:56;;;;;;;3.35;2.35;;;17.90;51.10;;;;;;5070974;28;20032;-77
2021/09/21 13:04:24;;;;;;;4.10;2.85;;;17.80;51.30;;;;;;5051988;28;20040;-77